Time;durP1;ratioP1;P1;durP2;ratioP2;P2;SDS_P1;SDS_P2;PMS_P1;PMS_P2;Temp;Humidity;BMP_temperature;BMP_pressure;BME280_temperature;BME280_humidity;BME280_pressure;Samples;Min_cycle;Max_cycle;Signal;HPM_P1;HPM_P2
2023/03/28 00:00:43;;;;;;;13.80;2.05;;;;;;;;;;5071491;28;20100;-71
2023/03/28 00:03:13;;;;;;;11.73;1.80;;;;;;;;;;5065238;28;20100;-71
2023/03/28 00:05:39;;;;;;;8.30;1.60;;;;;;;;;;5056707;28;20086;-71
2023/03/28 00:08:05;;;;;;;14.60;2.30;;;;;;;;;;5055061;28;20055;-70
2023/03/28 00:10:31;;;;;;;13.23;2.08;;;;;;;;;;5054365;28;20035;-71
2023/03/28 00:12:57;;;;;;;10.40;1.88;;;;;;;;;;5055122;28;20115;-74
2023/03/28 00:15:24;;;;;;;10.60;2.00;;;;;;;;;;5056061;28;20040;-73
2023/03/28 00:17:51;;;;;;;12.88;1.75;;;;;;;;;;5054493;28;20383;-72
2023/03/28 00:20:17;;;;;;;18.33;2.00;;;;;;;;;;5054443;28;20151;-73
2023/03/28 00:22:43;;;;;;;11.35;2.15;;;;;;;;;;5054707;28;20093;-72
2023/03/28 00:25:10;;;;;;;16.20;2.13;;;;;;;;;;5055015;28;20079;-71
2023/03/28 00:27:36;;;;;;;10.35;1.60;;;;;;;;;;5054110;28;20031;-71
2023/03/28 00:30:03;;;;;;;15.05;2.10;;;;;;;;;;5053923;28;20407;-72
2023/03/28 00:32:30;;;;;;;13.48;1.75;;;;;;;;;;5053911;28;20068;-71
2023/03/28 00:34:56;;;;;;;12.85;1.80;;;;;;;;;;5054134;28;20483;-72
2023/03/28 00:37:22;;;;;;;28.73;2.20;;;;;;;;;;5053800;28;20032;-71
2023/03/28 00:39:52;;;;;;;15.15;2.28;;;;;;;;;;5053755;28;20029;-71
2023/03/28 00:42:19;;;;;;;15.75;2.13;;;;;;;;;;5053684;28;20489;-72
2023/03/28 00:44:53;;;;;;;6.47;1.50;;;;;;;;;;5054081;28;20452;-71
2023/03/28 00:47:25;;;;;;;13.67;2.63;;;;;;;;;;5053668;28;20053;-73
2023/03/28 00:49:53;;;;;;;11.00;1.80;;;;;;;;;;5053646;28;20338;-72
2023/03/28 00:52:21;;;;;;;11.13;1.65;;;;;;;;;;5053218;28;20035;-73
2023/03/28 00:54:47;;;;;;;9.30;1.98;;;;;;;;;;5053499;28;20029;-73
2023/03/28 00:57:15;;;;;;;12.75;1.92;;;;;;;;;;5053462;28;20082;-73
2023/03/28 00:59:41;;;;;;;11.98;1.70;;;;;;;;;;5054436;28;20017;-74
2023/03/28 01:02:09;;;;;;;9.63;1.45;;;;;;;;;;5054234;28;20067;-72
2023/03/28 01:04:45;;;;;;;10.43;1.80;;;;;;;;;;5054565;28;20021;-73
2023/03/28 01:07:12;;;;;;;10.00;1.52;;;;;;;;;;5054656;28;20025;-72
2023/03/28 01:09:39;;;;;;;10.82;2.10;;;;;;;;;;5054855;28;20017;-73
2023/03/28 01:12:05;;;;;;;8.57;1.40;;;;;;;;;;5054983;28;20017;-72
2023/03/28 01:14:32;;;;;;;12.60;1.50;;;;;;;;;;5055597;28;20422;-71
2023/03/28 01:16:57;;;;;;;8.93;1.48;;;;;;;;;;5058136;28;20066;-72
2023/03/28 01:19:41;;;;;;;12.40;1.77;;;;;;;;;;5059128;28;20029;-72
2023/03/28 01:22:22;;;;;;;13.82;1.60;;;;;;;;;;5054594;28;20025;-72
2023/03/28 01:25:01;;;;;;;8.13;1.30;;;;;;;;;;5054473;28;20564;-71
2023/03/28 01:27:40;;;;;;;10.10;1.40;;;;;;;;;;5053584;28;20050;-72
2023/03/28 01:30:09;;;;;;;11.90;2.17;;;;;;;;;;5052887;28;20025;-73
2023/03/28 01:32:47;;;;;;;8.50;1.60;;;;;;;;;;5052516;28;20131;-71
2023/03/28 01:35:13;;;;;;;8.63;1.95;;;;;;;;;;5052732;28;20079;-70
2023/03/28 01:37:39;;;;;;;8.70;1.67;;;;;;;;;;5052673;28;20029;-71
2023/03/28 01:40:15;;;;;;;9.80;1.40;;;;;;;;;;5052632;28;20087;-72
2023/03/28 01:42:46;;;;;;;7.90;1.30;;;;;;;;;;5052371;28;20013;-72
2023/03/28 01:45:17;;;;;;;6.63;1.92;;;;;;;;;;5052575;28;20036;-72
2023/03/28 01:47:48;;;;;;;9.05;1.45;;;;;;;;;;5051460;28;20630;-71
2023/03/28 01:50:17;;;;;;;8.00;1.70;;;;;;;;;;5052425;28;20029;-74
2023/03/28 01:52:43;;;;;;;9.65;1.50;;;;;;;;;;5052218;28;20048;-72
2023/03/28 01:55:17;;;;;;;13.38;1.55;;;;;;;;;;5052274;28;20072;-73
2023/03/28 01:57:50;;;;;;;6.97;1.50;;;;;;;;;;5052261;28;20380;-72
2023/03/28 02:00:24;;;;;;;10.13;1.38;;;;;;;;;;5052183;28;20021;-72
2023/03/28 02:02:56;;;;;;;8.00;1.43;;;;;;;;;;5052170;28;20089;-72
2023/03/28 02:05:23;;;;;;;6.53;1.70;;;;;;;;;;5052761;28;20382;-73
2023/03/28 02:07:53;;;;;;;7.63;1.50;;;;;;;;;;5052716;28;20483;-72
2023/03/28 02:10:21;;;;;;;9.13;1.67;;;;;;;;;;5053069;28;20503;-72
2023/03/28 02:12:50;;;;;;;7.90;1.75;;;;;;;;;;5053164;28;20506;-74
2023/03/28 02:15:17;;;;;;;11.82;1.55;;;;;;;;;;5035248;28;20082;-73
2023/03/28 02:17:45;;;;;;;10.38;1.88;;;;;;;;;;5053174;28;20532;-72
2023/03/28 02:20:14;;;;;;;7.07;1.50;;;;;;;;;;5053016;28;20032;-73
2023/03/28 02:22:46;;;;;;;6.93;1.50;;;;;;;;;;5053060;28;20082;-74
2023/03/28 02:25:12;;;;;;;7.70;1.70;;;;;;;;;;5053746;28;20359;-73
2023/03/28 02:27:40;;;;;;;8.70;1.50;;;;;;;;;;5052918;28;20040;-73
2023/03/28 02:30:07;;;;;;;7.25;1.90;;;;;;;;;;5053578;28;20374;-72
2023/03/28 02:32:33;;;;;;;7.65;1.70;;;;;;;;;;5053233;28;20056;-74
2023/03/28 02:34:59;;;;;;;10.63;1.65;;;;;;;;;;5035589;28;20065;-73
2023/03/28 02:37:44;;;;;;;8.13;1.52;;;;;;;;;;5052114;28;20467;-72
2023/03/28 02:40:10;;;;;;;9.63;2.17;;;;;;;;;;5051845;28;20027;-72
2023/03/28 02:42:36;;;;;;;3.90;1.20;;;;;;;;;;5052276;28;20110;-72
2023/03/28 02:45:02;;;;;;;8.88;1.60;;;;;;;;;;5052087;28;20028;-71
2023/03/28 02:47:28;;;;;;;7.50;1.63;;;;;;;;;;5052607;28;20044;-73
2023/03/28 02:50:17;;;;;;;8.35;2.13;;;;;;;;;;5053689;28;20021;-73
2023/03/28 02:52:55;;;;;;;8.45;2.35;;;;;;;;;;5053123;28;20025;-71
2023/03/28 02:55:39;;;;;;;5.45;1.50;;;;;;;;;;5053173;28;20033;-72
2023/03/28 02:58:13;;;;;;;9.02;1.52;;;;;;;;;;5053027;28;20029;-71
2023/03/28 03:00:39;;;;;;;7.32;1.70;;;;;;;;;;5051826;28;20021;-73
2023/03/28 03:03:09;;;;;;;11.00;4.22;;;;;;;;;;5051283;28;20507;-72
2023/03/28 03:05:35;;;;;;;4.93;1.83;;;;;;;;;;5051705;28;20033;-72
2023/03/28 03:08:01;;;;;;;18.90;5.50;;;;;;;;;;5051343;28;20521;-72
2023/03/28 03:10:27;;;;;;;12.77;2.47;;;;;;;;;;5051409;28;20035;-73
2023/03/28 03:12:54;;;;;;;10.70;1.95;;;;;;;;;;5051354;28;20525;-72
2023/03/28 03:15:20;;;;;;;5.60;1.52;;;;;;;;;;5051221;28;20394;-72
2023/03/28 03:17:46;;;;;;;7.28;1.63;;;;;;;;;;5051255;28;20025;-72
2023/03/28 03:20:12;;;;;;;6.13;1.70;;;;;;;;;;5051432;28;20025;-72
2023/03/28 03:22:38;;;;;;;3.97;1.52;;;;;;;;;;5050991;28;20107;-72
2023/03/28 03:25:06;;;;;;;5.97;1.50;;;;;;;;;;5051429;28;20478;-72
2023/03/28 03:27:33;;;;;;;9.95;1.80;;;;;;;;;;5051276;28;20409;-72
2023/03/28 03:30:00;;;;;;;5.25;1.75;;;;;;;;;;5051467;28;20025;-71
2023/03/28 03:32:26;;;;;;;8.10;1.70;;;;;;;;;;5051200;28;20100;-73
2023/03/28 03:34:52;;;;;;;5.40;1.20;;;;;;;;;;5054768;28;20028;-71
2023/03/28 03:37:18;;;;;;;7.72;1.40;;;;;;;;;;5071234;28;20051;-72
2023/03/28 03:39:44;;;;;;;9.38;2.38;;;;;;;;;;5072344;28;20028;-73
2023/03/28 03:42:11;;;;;;;9.15;3.38;;;;;;;;;;5071943;28;20442;-73
2023/03/28 03:44:37;;;;;;;10.23;3.30;;;;;;;;;;5072316;28;20103;-74
2023/03/28 03:47:03;;;;;;;15.25;4.88;;;;;;;;;;5071841;28;20055;-72
2023/03/28 03:49:29;;;;;;;9.82;3.47;;;;;;;;;;5074521;28;20021;-72
2023/03/28 03:51:55;;;;;;;6.60;1.98;;;;;;;;;;5074572;28;20075;-72
2023/03/28 03:54:21;;;;;;;10.70;3.45;;;;;;;;;;5075166;28;20058;-72
2023/03/28 03:56:47;;;;;;;10.85;4.35;;;;;;;;;;5074159;28;20104;-73
2023/03/28 03:59:13;;;;;;;3.53;1.60;;;;;;;;;;5074601;28;20518;-72
2023/03/28 04:01:40;;;;;;;6.97;3.50;;;;;;;;;;5074543;28;20082;-73
2023/03/28 04:04:06;;;;;;;7.55;2.00;;;;;;;;;;5074369;28;20020;-71
2023/03/28 04:06:33;;;;;;;12.50;1.80;;;;;;;;;;5074329;28;20130;-72
2023/03/28 04:08:59;;;;;;;5.85;2.75;;;;;;;;;;5075020;28;20028;-73
2023/03/28 04:11:25;;;;;;;13.45;3.08;;;;;;;;;;5074393;28;20027;-73
2023/03/28 04:13:51;;;;;;;7.55;3.50;;;;;;;;;;5074525;28;20467;-73
2023/03/28 04:16:19;;;;;;;14.68;6.90;;;;;;;;;;5074679;28;20107;-74
2023/03/28 04:18:49;;;;;;;9.13;3.33;;;;;;;;;;5074259;28;20492;-73
2023/03/28 04:21:16;;;;;;;6.47;2.15;;;;;;;;;;5074139;28;20403;-72
2023/03/28 04:23:42;;;;;;;5.70;1.77;;;;;;;;;;5073695;28;20036;-72
2023/03/28 04:26:09;;;;;;;5.35;1.88;;;;;;;;;;5073973;28;20025;-73
2023/03/28 04:28:35;;;;;;;6.05;1.55;;;;;;;;;;5074549;28;20032;-73
2023/03/28 04:31:03;;;;;;;7.88;2.10;;;;;;;;;;5074651;28;20099;-71
2023/03/28 04:33:32;;;;;;;9.48;2.65;;;;;;;;;;5074633;28;20020;-73
2023/03/28 04:36:00;;;;;;;8.65;3.10;;;;;;;;;;5074657;28;20478;-71
2023/03/28 04:38:27;;;;;;;7.60;2.30;;;;;;;;;;5073879;28;20056;-72
2023/03/28 04:40:56;;;;;;;6.18;1.63;;;;;;;;;;5074058;28;20024;-71
2023/03/28 04:43:23;;;;;;;4.70;1.55;;;;;;;;;;5073715;28;20069;-72
2023/03/28 04:45:49;;;;;;;6.15;1.60;;;;;;;;;;5073545;28;20035;-74
2023/03/28 04:48:15;;;;;;;7.72;1.88;;;;;;;;;;5073791;28;20393;-73
2023/03/28 04:50:40;;;;;;;5.32;1.50;;;;;;;;;;5073398;28;20028;-72
2023/03/28 04:53:06;;;;;;;9.05;2.13;;;;;;;;;;5073207;28;20474;-73
2023/03/28 04:55:32;;;;;;;9.90;2.67;;;;;;;;;;5073366;28;20066;-71
2023/03/28 04:57:58;;;;;;;7.50;2.22;;;;;;;;;;5073188;28;20028;-71
2023/03/28 05:00:24;;;;;;;7.25;2.80;;;;;;;;;;5072844;28;20096;-72
2023/03/28 05:02:54;;;;;;;12.27;3.53;;;;;;;;;;5073344;28;20027;-72
2023/03/28 05:05:20;;;;;;;5.68;2.50;;;;;;;;;;5073348;28;20094;-72
2023/03/28 05:07:46;;;;;;;9.77;3.20;;;;;;;;;;5073592;28;20063;-74
2023/03/28 05:10:13;;;;;;;9.35;3.53;;;;;;;;;;5074231;28;20032;-77
2023/03/28 05:12:38;;;;;;;14.85;3.65;;;;;;;;;;5075540;28;20024;-73
2023/03/28 05:15:05;;;;;;;13.02;3.22;;;;;;;;;;5073427;28;20436;-71
2023/03/28 05:17:31;;;;;;;8.00;2.72;;;;;;;;;;5073754;28;20398;-72
2023/03/28 05:19:57;;;;;;;9.68;2.67;;;;;;;;;;5074584;28;20024;-72
2023/03/28 05:22:23;;;;;;;8.48;2.70;;;;;;;;;;5072875;28;20035;-72
2023/03/28 05:24:49;;;;;;;18.95;6.25;;;;;;;;;;5071579;28;20531;-72
2023/03/28 05:27:16;;;;;;;9.90;3.47;;;;;;;;;;5058674;28;20016;-74
2023/03/28 05:29:42;;;;;;;10.65;4.53;;;;;;;;;;5063129;28;20501;-74
2023/03/28 05:32:09;;;;;;;12.65;3.85;;;;;;;;;;5063679;28;20459;-74
2023/03/28 05:34:35;;;;;;;9.60;3.17;;;;;;;;;;5061656;28;20036;-72
2023/03/28 05:37:02;;;;;;;12.32;3.70;;;;;;;;;;5076184;28;20083;-74
2023/03/28 05:39:28;;;;;;;12.43;3.08;;;;;;;;;;5065001;28;20471;-78
2023/03/28 05:41:54;;;;;;;13.50;3.50;;;;;;;;;;5064024;28;20017;-74
2023/03/28 05:44:20;;;;;;;14.63;2.90;;;;;;;;;;5072871;28;20482;-73
2023/03/28 05:46:46;;;;;;;10.68;2.92;;;;;;;;;;5060314;28;20051;-74
2023/03/28 05:49:13;;;;;;;15.40;3.47;;;;;;;;;;5064454;28;20118;-74
2023/03/28 05:51:39;;;;;;;12.75;3.10;;;;;;;;;;5060680;28;20070;-75
2023/03/28 05:54:05;;;;;;;19.77;3.05;;;;;;;;;;5068820;28;20020;-77
2023/03/28 05:56:34;;;;;;;21.65;3.42;;;;;;;;;;5065293;28;20036;-74
2023/03/28 05:59:00;;;;;;;18.60;3.42;;;;;;;;;;5060154;28;20505;-74
2023/03/28 06:01:27;;;;;;;12.23;2.97;;;;;;;;;;5063596;28;20029;-75
2023/03/28 06:03:54;;;;;;;19.30;3.65;;;;;;;;;;5061664;28;20369;-74
2023/03/28 06:06:20;;;;;;;17.98;3.35;;;;;;;;;;5064762;28;20496;-74
2023/03/28 06:08:46;;;;;;;27.83;11.75;;;;;;;;;;5061431;28;20040;-73
2023/03/28 06:11:13;;;;;;;15.00;4.10;;;;;;;;;;5056860;28;20079;-72
2023/03/28 06:13:39;;;;;;;20.20;3.97;;;;;;;;;;5049658;28;20171;-73
2023/03/28 06:16:05;;;;;;;20.80;3.13;;;;;;;;;;5055636;28;20437;-73
2023/03/28 06:18:31;;;;;;;18.42;3.83;;;;;;;;;;5051601;28;20558;-72
2023/03/28 06:20:57;;;;;;;23.98;4.80;;;;;;;;;;5051622;28;20056;-72
2023/03/28 06:23:23;;;;;;;16.00;3.78;;;;;;;;;;5051324;28;20067;-71
2023/03/28 06:25:49;;;;;;;17.95;3.50;;;;;;;;;;5051773;28;20058;-72
2023/03/28 06:28:15;;;;;;;15.68;3.70;;;;;;;;;;5051457;28;20029;-72
2023/03/28 06:30:41;;;;;;;13.60;4.30;;;;;;;;;;5051657;28;20031;-72
2023/03/28 06:33:07;;;;;;;25.08;5.10;;;;;;;;;;5050829;28;20385;-72
2023/03/28 06:35:33;;;;;;;21.13;4.68;;;;;;;;;;5051551;28;20061;-72
2023/03/28 06:38:00;;;;;;;23.60;4.55;;;;;;;;;;5051187;28;20047;-71
2023/03/28 06:40:26;;;;;;;24.67;4.30;;;;;;;;;;5051712;28;20028;-73
2023/03/28 06:42:52;;;;;;;22.65;3.78;;;;;;;;;;5051101;28;20025;-72
2023/03/28 06:45:18;;;;;;;27.15;4.13;;;;;;;;;;5051396;28;20035;-74
2023/03/28 06:47:44;;;;;;;18.55;4.03;;;;;;;;;;5050680;28;20100;-72
2023/03/28 06:50:11;;;;;;;22.02;4.90;;;;;;;;;;5051716;28;20474;-72
2023/03/28 06:52:37;;;;;;;26.02;3.92;;;;;;;;;;5050977;28;20029;-72
2023/03/28 06:55:03;;;;;;;19.27;4.13;;;;;;;;;;5049991;28;20043;-72
2023/03/28 06:57:29;;;;;;;28.80;3.88;;;;;;;;;;5050033;28;20039;-74
2023/03/28 06:59:55;;;;;;;19.00;3.30;;;;;;;;;;5050096;28;20100;-72
2023/03/28 07:02:21;;;;;;;22.40;3.50;;;;;;;;;;5049691;28;20177;-73
2023/03/28 07:04:48;;;;;;;28.77;4.70;;;;;;;;;;5050048;28;20029;-72
2023/03/28 07:07:14;;;;;;;26.92;6.97;;;;;;;;;;5050001;28;20025;-71
2023/03/28 07:09:40;;;;;;;40.58;10.50;;;;;;;;;;5050032;28;20045;-72
2023/03/28 07:12:06;;;;;;;36.20;9.57;;;;;;;;;;5049669;28;20082;-71
2023/03/28 07:14:32;;;;;;;29.80;7.93;;;;;;;;;;5050015;28;20029;-71
2023/03/28 07:16:58;;;;;;;17.63;3.10;;;;;;;;;;5049963;28;20025;-72
2023/03/28 07:19:24;;;;;;;18.67;2.88;;;;;;;;;;5049931;28;20478;-72
2023/03/28 07:21:51;;;;;;;15.73;3.03;;;;;;;;;;5049833;28;20104;-71
2023/03/28 07:24:18;;;;;;;22.67;3.75;;;;;;;;;;5054356;28;20096;-72
2023/03/28 07:26:44;;;;;;;19.52;2.55;;;;;;;;;;5053689;28;20029;-73
2023/03/28 07:29:10;;;;;;;12.05;2.50;;;;;;;;;;5053830;28;20048;-72
2023/03/28 07:31:36;;;;;;;20.13;3.75;;;;;;;;;;5053833;28;20036;-71
2023/03/28 07:34:02;;;;;;;26.98;2.97;;;;;;;;;;5053432;28;20520;-71
2023/03/28 07:36:28;;;;;;;19.33;3.20;;;;;;;;;;5053724;28;20029;-71
2023/03/28 07:38:55;;;;;;;16.65;2.70;;;;;;;;;;5053682;28;20502;-72
2023/03/28 07:41:21;;;;;;;16.70;2.60;;;;;;;;;;5053782;28;20048;-71
2023/03/28 07:43:47;;;;;;;14.70;2.58;;;;;;;;;;5053343;28;20025;-76
2023/03/28 07:46:14;;;;;;;22.15;4.00;;;;;;;;;;5054164;28;20179;-75
2023/03/28 07:48:41;;;;;;;19.35;2.75;;;;;;;;;;5054064;28;20039;-76
2023/03/28 07:51:08;;;;;;;21.42;3.47;;;;;;;;;;5054760;28;20027;-75
2023/03/28 07:53:36;;;;;;;25.45;3.78;;;;;;;;;;5054326;28;20352;-74
2023/03/28 07:56:02;;;;;;;18.52;2.50;;;;;;;;;;5054862;28;20488;-73
2023/03/28 07:58:28;;;;;;;24.70;2.72;;;;;;;;;;5056532;28;20033;-76
2023/03/28 08:00:55;;;;;;;23.35;2.95;;;;;;;;;;5037034;28;20017;-73
2023/03/28 08:03:22;;;;;;;18.00;2.58;;;;;;;;;;5054969;28;20433;-73
2023/03/28 08:05:50;;;;;;;27.10;3.25;;;;;;;;;;5056559;28;20525;-74
2023/03/28 08:08:17;;;;;;;17.52;3.17;;;;;;;;;;5055811;28;20082;-74
2023/03/28 08:10:49;;;;;;;30.05;3.92;;;;;;;;;;5037802;28;20078;-75
2023/03/28 08:13:16;;;;;;;11.02;2.20;;;;;;;;;;5055012;28;20052;-75
2023/03/28 08:15:42;;;;;;;21.38;2.80;;;;;;;;;;5054968;28;20025;-74
2023/03/28 08:18:08;;;;;;;16.60;2.53;;;;;;;;;;5054851;28;20028;-76
2023/03/28 08:20:34;;;;;;;20.60;2.65;;;;;;;;;;5054933;28;20028;-75
2023/03/28 08:23:01;;;;;;;17.45;2.42;;;;;;;;;;5053979;28;20021;-76
2023/03/28 08:25:27;;;;;;;26.30;2.60;;;;;;;;;;5055998;28;20025;-75
2023/03/28 08:27:53;;;;;;;20.58;2.58;;;;;;;;;;5056118;28;20055;-75
2023/03/28 08:30:19;;;;;;;14.50;3.13;;;;;;;;;;5055227;28;20025;-75
2023/03/28 08:32:45;;;;;;;20.90;2.83;;;;;;;;;;5055101;28;20099;-76
2023/03/28 08:35:12;;;;;;;19.98;2.80;;;;;;;;;;5052823;28;20323;-74
2023/03/28 08:37:38;;;;;;;14.38;2.50;;;;;;;;;;5054223;28;20018;-76
2023/03/28 08:40:09;;;;;;;15.50;2.35;;;;;;;;;;5056298;28;20143;-73
2023/03/28 08:42:48;;;;;;;9.63;2.47;;;;;;;;;;5054116;28;20017;-75
2023/03/28 08:45:20;;;;;;;15.88;3.38;;;;;;;;;;5055083;28;20386;-75
2023/03/28 08:48:07;;;;;;;28.42;4.50;;;;;;;;;;5056020;28;20118;-77
2023/03/28 08:50:41;;;;;;;16.77;2.40;;;;;;;;;;5054613;28;20059;-75
2023/03/28 08:53:12;;;;;;;16.08;2.50;;;;;;;;;;5054139;28;20025;-75
2023/03/28 08:55:40;;;;;;;17.67;2.22;;;;;;;;;;5039465;28;20411;-71
2023/03/28 08:58:09;;;;;;;15.80;1.90;;;;;;;;;;5054058;28;20037;-71
2023/03/28 09:00:38;;;;;;;15.13;2.35;;;;;;;;;;5054808;28;20497;-72
2023/03/28 09:03:14;;;;;;;14.43;2.50;;;;;;;;;;5054090;28;20025;-71
2023/03/28 09:05:46;;;;;;;17.98;2.92;;;;;;;;;;5054527;28;20051;-72
2023/03/28 09:08:12;;;;;;;19.67;2.60;;;;;;;;;;5054038;28;20028;-73
2023/03/28 09:10:50;;;;;;;14.45;3.47;;;;;;;;;;5063439;28;20029;-71
2023/03/28 09:13:16;;;;;;;15.95;3.38;;;;;;;;;;5068716;28;20052;-73
2023/03/28 09:15:52;;;;;;;15.13;2.42;;;;;;;;;;5074103;28;20464;-72
2023/03/28 09:18:17;;;;;;;10.55;2.30;;;;;;;;;;5073934;28;20021;-72
2023/03/28 09:20:53;;;;;;;15.30;2.30;;;;;;;;;;5074344;28;20031;-70
2023/03/28 09:23:25;;;;;;;13.43;2.40;;;;;;;;;;5075410;28;20482;-73
2023/03/28 09:25:56;;;;;;;13.85;3.17;;;;;;;;;;5058382;28;20028;-71
2023/03/28 09:28:30;;;;;;;11.60;2.25;;;;;;;;;;5082032;28;20025;-70
2023/03/28 09:30:57;;;;;;;17.52;3.70;;;;;;;;;;5081709;28;20540;-73
2023/03/28 09:33:39;;;;;;;15.07;2.40;;;;;;;;;;5075094;28;20422;-72
2023/03/28 09:36:12;;;;;;;17.88;2.50;;;;;;;;;;5074436;28;20031;-73
2023/03/28 09:38:43;;;;;;;17.58;3.63;;;;;;;;;;5074695;28;20055;-72
2023/03/28 09:41:21;;;;;;;11.18;2.00;;;;;;;;;;5074935;28;20099;-73
2023/03/28 09:43:49;;;;;;;14.80;2.38;;;;;;;;;;5073918;28;20028;-72
2023/03/28 09:46:23;;;;;;;12.77;1.95;;;;;;;;;;5073998;28;20052;-71
2023/03/28 09:48:50;;;;;;;12.73;2.58;;;;;;;;;;5075486;28;20025;-73
2023/03/28 09:51:17;;;;;;;14.75;2.67;;;;;;;;;;5073304;28;20440;-73
2023/03/28 09:53:43;;;;;;;11.95;2.08;;;;;;;;;;5073598;28;20505;-72
2023/03/28 09:56:21;;;;;;;17.50;2.35;;;;;;;;;;5082877;28;20036;-74
2023/03/28 09:58:49;;;;;;;11.38;2.30;;;;;;;;;;5079107;28;20032;-73
2023/03/28 10:01:24;;;;;;;14.52;2.20;;;;;;;;;;5079910;28;20059;-73
2023/03/28 10:03:55;;;;;;;18.17;2.25;;;;;;;;;;5074003;28;20545;-72
2023/03/28 10:06:26;;;;;;;12.65;2.20;;;;;;;;;;5073761;28;20056;-72
2023/03/28 10:08:52;;;;;;;9.40;2.10;;;;;;;;;;5072971;28;20383;-72
2023/03/28 10:11:21;;;;;;;14.77;2.40;;;;;;;;;;5072399;28;20075;-72
2023/03/28 10:13:48;;;;;;;16.83;2.47;;;;;;;;;;5071839;28;20449;-71
2023/03/28 10:16:17;;;;;;;16.48;1.92;;;;;;;;;;5071938;28;20116;-71
2023/03/28 10:18:43;;;;;;;17.80;2.92;;;;;;;;;;5072155;28;20039;-72
2023/03/28 10:21:21;;;;;;;11.95;3.13;;;;;;;;;;5072218;28;20021;-72
2023/03/28 10:23:50;;;;;;;15.80;2.65;;;;;;;;;;5072494;28;20025;-71
2023/03/28 10:26:20;;;;;;;10.85;2.35;;;;;;;;;;5072475;28;20103;-71
2023/03/28 10:28:47;;;;;;;16.13;2.67;;;;;;;;;;5072309;28;20409;-72
2023/03/28 10:31:20;;;;;;;16.15;2.53;;;;;;;;;;5071861;28;20033;-71
2023/03/28 10:33:51;;;;;;;7.40;2.03;;;;;;;;;;5072102;28;20056;-73
2023/03/28 10:36:27;;;;;;;15.75;3.28;;;;;;;;;;5072248;28;20024;-72
2023/03/28 10:38:54;;;;;;;13.35;2.58;;;;;;;;;;5075455;28;20028;-74
2023/03/28 10:41:21;;;;;;;14.38;2.10;;;;;;;;;;5056407;28;20579;-74
2023/03/28 10:43:48;;;;;;;15.10;1.92;;;;;;;;;;5074003;28;20079;-72
2023/03/28 10:46:15;;;;;;;14.57;2.05;;;;;;;;;;5073777;28;20035;-73
2023/03/28 10:48:45;;;;;;;10.25;2.25;;;;;;;;;;5076458;28;20174;-73
2023/03/28 10:51:31;;;;;;;9.35;2.08;;;;;;;;;;5071108;28;20035;-73
2023/03/28 10:54:14;;;;;;;12.32;2.20;;;;;;;;;;5079768;28;20028;-72
2023/03/28 10:56:51;;;;;;;18.38;2.92;;;;;;;;;;5073321;28;20039;-70
2023/03/28 10:59:36;;;;;;;17.45;3.55;;;;;;;;;;5075667;28;20047;-71
2023/03/28 11:02:11;;;;;;;12.00;2.72;;;;;;;;;;5075400;28;20112;-73
2023/03/28 11:04:50;;;;;;;12.57;2.10;;;;;;;;;;5075536;28;20036;-72
2023/03/28 11:07:31;;;;;;;12.63;2.28;;;;;;;;;;5075515;28;20420;-73
2023/03/28 11:10:16;;;;;;;14.70;2.38;;;;;;;;;;5075211;28;20055;-73
2023/03/28 11:12:57;;;;;;;26.75;2.72;;;;;;;;;;5075166;28;20024;-73
2023/03/28 11:15:42;;;;;;;10.10;2.40;;;;;;;;;;5075622;28;20822;-75
2023/03/28 11:18:26;;;;;;;12.73;2.50;;;;;;;;;;5075098;28;20028;-73
2023/03/28 11:20:52;;;;;;;11.07;2.88;;;;;;;;;;5075209;28;20028;-72
2023/03/28 11:23:39;;;;;;;6.97;1.77;;;;;;;;;;5074929;28;20078;-73
2023/03/28 11:26:07;;;;;;;14.63;2.80;;;;;;;;;;5075193;28;20066;-73
2023/03/28 11:28:33;;;;;;;15.55;2.38;;;;;;;;;;5075230;28;20481;-73
2023/03/28 11:31:00;;;;;;;25.95;2.83;;;;;;;;;;5075199;28;20104;-72
2023/03/28 11:33:44;;;;;;;15.15;2.33;;;;;;;;;;5074792;28;20052;-72
2023/03/28 11:36:13;;;;;;;12.60;2.20;;;;;;;;;;5075122;28;20100;-72
2023/03/28 11:38:41;;;;;;;10.98;2.10;;;;;;;;;;5074784;28;20025;-71
2023/03/28 11:41:15;;;;;;;9.88;2.13;;;;;;;;;;5074961;28;20025;-73
2023/03/28 11:43:45;;;;;;;13.02;2.05;;;;;;;;;;5074458;28;20028;-72
2023/03/28 11:46:15;;;;;;;8.88;1.88;;;;;;;;;;5075059;28;20024;-73
2023/03/28 11:48:53;;;;;;;14.82;2.00;;;;;;;;;;5074626;28;20501;-73
2023/03/28 11:51:22;;;;;;;10.30;2.10;;;;;;;;;;5074788;28;20360;-74
2023/03/28 11:53:51;;;;;;;14.80;2.55;;;;;;;;;;5074542;28;20029;-73
2023/03/28 11:56:22;;;;;;;12.15;2.25;;;;;;;;;;5074231;28;20036;-73
2023/03/28 11:58:50;;;;;;;9.80;2.15;;;;;;;;;;5074701;28;20028;-73
2023/03/28 12:01:22;;;;;;;6.90;1.95;;;;;;;;;;5075062;28;20078;-74
2023/03/28 12:03:54;;;;;;;25.33;3.10;;;;;;;;;;5071649;28;20055;-72
2023/03/28 12:06:28;;;;;;;10.77;2.20;;;;;;;;;;5054669;28;20549;-72
2023/03/28 12:09:00;;;;;;;16.27;2.47;;;;;;;;;;5054633;28;20085;-71
2023/03/28 12:11:31;;;;;;;17.15;3.30;;;;;;;;;;5055749;28;20035;-72
2023/03/28 12:13:59;;;;;;;12.75;1.95;;;;;;;;;;5055121;28;20482;-70
2023/03/28 12:16:33;;;;;;;11.60;2.10;;;;;;;;;;5054215;28;20025;-71
2023/03/28 12:19:00;;;;;;;13.10;2.28;;;;;;;;;;5054427;28;20473;-71
2023/03/28 12:21:26;;;;;;;14.65;2.20;;;;;;;;;;5054132;28;20047;-71
2023/03/28 12:24:12;;;;;;;17.05;2.15;;;;;;;;;;5053650;28;20025;-70
2023/03/28 12:26:47;;;;;;;10.75;1.92;;;;;;;;;;5054875;28;20112;-73
2023/03/28 12:29:17;;;;;;;17.27;2.65;;;;;;;;;;5054815;28;20493;-70
2023/03/28 12:31:49;;;;;;;10.27;2.00;;;;;;;;;;5056480;28;20032;-71
2023/03/28 12:34:22;;;;;;;10.90;1.70;;;;;;;;;;5056882;28;20025;-71
2023/03/28 12:36:50;;;;;;;12.48;1.67;;;;;;;;;;5053854;28;20486;-71
2023/03/28 12:39:16;;;;;;;12.02;2.22;;;;;;;;;;5036081;28;20021;-73
2023/03/28 12:41:43;;;;;;;10.18;1.73;;;;;;;;;;5055643;28;20434;-73
2023/03/28 12:44:12;;;;;;;11.32;2.00;;;;;;;;;;5054198;28;20048;-73
2023/03/28 12:46:51;;;;;;;8.10;1.60;;;;;;;;;;5053470;28;20112;-72
2023/03/28 12:49:43;;;;;;;15.77;2.40;;;;;;;;;;5053204;28;20501;-72
2023/03/28 12:52:15;;;;;;;11.43;1.73;;;;;;;;;;5049156;28;20107;-72
2023/03/28 12:55:01;;;;;;;12.45;2.42;;;;;;;;;;5053214;28;20495;-72
2023/03/28 12:57:39;;;;;;;16.20;2.90;;;;;;;;;;5053343;28;20040;-71
2023/03/28 13:00:15;;;;;;;19.50;2.50;;;;;;;;;;5055617;28;20021;-72
2023/03/28 13:02:47;;;;;;;10.68;2.63;;;;;;;;;;5065816;28;20060;-72
2023/03/28 13:05:25;;;;;;;23.88;3.38;;;;;;;;;;5065485;28;20035;-73
2023/03/28 13:08:03;;;;;;;20.55;3.42;;;;;;;;;;5060968;28;20032;-71
2023/03/28 13:10:29;;;;;;;25.23;3.00;;;;;;;;;;5061142;28;20115;-72
2023/03/28 13:13:01;;;;;;;15.57;2.47;;;;;;;;;;5064212;28;20096;-73
2023/03/28 13:15:28;;;;;;;21.25;3.53;;;;;;;;;;5067841;28;20038;-72
2023/03/28 13:18:13;;;;;;;30.63;3.50;;;;;;;;;;5064589;28;20478;-72
2023/03/28 13:20:44;;;;;;;25.63;3.10;;;;;;;;;;5055404;28;20034;-71
2023/03/28 13:23:12;;;;;;;21.05;3.38;;;;;;;;;;5064290;28;20020;-73
2023/03/28 13:25:38;;;;;;;19.20;2.88;;;;;;;;;;5059561;28;20033;-73
2023/03/28 13:28:10;;;;;;;16.67;3.08;;;;;;;;;;5064196;28;20477;-73
2023/03/28 13:30:37;;;;;;;21.23;4.03;;;;;;;;;;5062171;28;20397;-72
2023/03/28 13:33:09;;;;;;;14.68;2.80;;;;;;;;;;5063894;28;20044;-74
2023/03/28 13:35:35;;;;;;;13.98;2.78;;;;;;;;;;5064165;28;20028;-72
2023/03/28 13:38:13;;;;;;;21.67;2.83;;;;;;;;;;5061112;28;20066;-71
2023/03/28 13:40:45;;;;;;;24.85;3.17;;;;;;;;;;5063430;28;20029;-72
2023/03/28 13:43:25;;;;;;;15.60;2.20;;;;;;;;;;5064258;28;20033;-71
2023/03/28 13:45:53;;;;;;;11.35;2.03;;;;;;;;;;5062798;28;20032;-70
2023/03/28 13:48:20;;;;;;;14.30;2.13;;;;;;;;;;5064066;28;20486;-74
2023/03/28 13:50:47;;;;;;;18.85;4.82;;;;;;;;;;5040271;28;20036;-73
2023/03/28 13:53:13;;;;;;;18.70;4.03;;;;;;;;;;5060480;28;20037;-73
2023/03/28 13:55:41;;;;;;;8.57;2.30;;;;;;;;;;5066089;28;20035;-76
2023/03/28 13:58:10;;;;;;;11.82;2.25;;;;;;;;;;5048029;28;20035;-72
2023/03/28 14:00:36;;;;;;;18.42;2.67;;;;;;;;;;5065079;28;20021;-73
2023/03/28 14:03:12;;;;;;;12.48;2.22;;;;;;;;;;5064545;28;20268;-74
2023/03/28 14:05:42;;;;;;;9.25;2.13;;;;;;;;;;5064014;28;20082;-73
2023/03/28 14:08:14;;;;;;;12.27;2.50;;;;;;;;;;5061977;28;20020;-73
2023/03/28 14:10:44;;;;;;;12.98;3.05;;;;;;;;;;5070677;28;20047;-71
2023/03/28 14:13:15;;;;;;;16.75;3.13;;;;;;;;;;5071471;28;20107;-72
2023/03/28 14:15:42;;;;;;;16.65;2.67;;;;;;;;;;5071167;28;20632;-71
2023/03/28 14:18:17;;;;;;;13.43;2.65;;;;;;;;;;5071812;28;20017;-75
2023/03/28 14:20:44;;;;;;;18.05;3.00;;;;;;;;;;5073190;28;20036;-78
2023/03/28 14:23:23;;;;;;;17.90;2.53;;;;;;;;;;5064031;28;20032;-72
2023/03/28 14:25:49;;;;;;;13.98;3.13;;;;;;;;;;5071666;28;20024;-72
2023/03/28 14:28:15;;;;;;;15.70;3.22;;;;;;;;;;5072358;28;20544;-71
2023/03/28 14:30:41;;;;;;;13.88;3.33;;;;;;;;;;5071963;28;20036;-72
2023/03/28 14:33:10;;;;;;;18.95;4.47;;;;;;;;;;5071626;28;20017;-70
2023/03/28 14:35:38;;;;;;;16.50;3.15;;;;;;;;;;5072459;28;20025;-73
2023/03/28 14:38:06;;;;;;;18.95;3.13;;;;;;;;;;5071296;28;20524;-70
2023/03/28 14:40:36;;;;;;;20.65;3.55;;;;;;;;;;5072147;28;20331;-70
2023/03/28 14:43:22;;;;;;;18.70;3.35;;;;;;;;;;5071877;28;20355;-69
2023/03/28 14:45:52;;;;;;;9.65;2.60;;;;;;;;;;5072019;28;20386;-74